Green Dragon — OEX7647 — position and weather

sailwx.info

Track history (hours):
 
Tides and Currents Weather Stations Pressure Air Temp Water Temp Dewpoint Dewpoint Depression Visibility Wind Speed Wind Dir Waves Ship Positions

Green Dragon

Last reported at 2018-Jun-24 11:00 UTC. Time now 2018-Jun-24 10:59 UTC.
Position N 52°06' E 004°16'.

Length 21 m.

Type: Sailing vessel. MMSI: 203214400.

Date/timePositionNaut miles runAvg speedWind from/ knotsBaromVisibWave heightAir tempDewpointWater temp
2018-Jun-24 11:00N 52°06' E 004°16'0 0.0
2018-Jun-24 10:21N 52°06' E 004°16'0 0.0
2018-Jun-24 10:00N 52°06' E 004°16'0 0.0
2018-Jun-24 08:33N 52°06' E 004°16'0 0.0
2018-Jun-24 08:27N 52°06' E 004°16'0 0.0
2018-Jun-24 08:00N 52°06' E 004°16'0 0.0
2018-Jun-24 07:30N 52°06' E 004°16'0 0.0
2018-Jun-24 07:00N 52°06' E 004°16'0 0.0
2018-Jun-24 06:30N 52°06' E 004°16'0 0.0
2018-Jun-24 05:45N 52°06' E 004°16'0 0.0
2018-Jun-24 05:21N 52°06' E 004°16'0 0.0
2018-Jun-24 04:57N 52°06' E 004°16'0 0.0
2018-Jun-24 04:18N 52°06' E 004°16'0 0.0
2018-Jun-24 04:00N 52°06' E 004°16'0 0.0
2018-Jun-24 03:30N 52°06' E 004°16'0 0.0
2018-Jun-24 02:54N 52°06' E 004°16'0 0.0
2018-Jun-24 02:21N 52°06' E 004°16'0 0.0
2018-Jun-24 01:33N 52°06' E 004°16'0 0.0
2018-Jun-24 01:30N 52°06' E 004°16'0 0.0
2018-Jun-24 01:00N 52°06' E 004°16'0 0.0
2018-Jun-24 00:27N 52°06' E 004°16'0 0.0
2018-Jun-23 23:54N 52°06' E 004°16'0 0.0
2018-Jun-23 23:27N 52°06' E 004°16'0 0.0
2018-Jun-23 23:00N 52°06' E 004°16'0 0.0
2018-Jun-23 22:30N 52°06' E 004°16'0 0.0
2018-Jun-23 21:57N 52°06' E 004°16'0 0.0
2018-Jun-23 21:30N 52°06' E 004°16'0 0.0
2018-Jun-23 20:36N 52°06' E 004°16'0 0.0
2018-Jun-23 20:27N 52°06' E 004°16'0 0.0
2018-Jun-23 19:39N 52°06' E 004°16'0 0.0
2018-Jun-23 19:21N 52°06' E 004°16'0 0.0
2018-Jun-23 18:45N 52°06' E 004°16'0 0.0
2018-Jun-23 18:27N 52°06' E 004°16'0 0.0
2018-Jun-23 17:57N 52°06' E 004°16'0 0.0
2018-Jun-23 17:24N 52°06' E 004°16'0 0.0
2018-Jun-23 16:57N 52°06' E 004°16'0 0.0
2018-Jun-23 16:27N 52°06' E 004°16'0 0.0
2018-Jun-23 16:00N 52°06' E 004°16'0 0.0
2018-Jun-23 15:27N 52°06' E 004°16'0 0.0
2018-Jun-23 14:57N 52°06' E 004°16'0 0.0
2018-Jun-23 14:18N 52°06' E 004°16'0 0.0
2018-Jun-23 13:59N 52°06' E 004°16'2 3.5
2018-Jun-23 13:30N 52°07' E 004°14'1 2.4
2018-Jun-23 12:59N 52°08' E 004°15'3 6.2
2018-Jun-23 12:30N 52°10' E 004°17'3 5.9
2018-Jun-23 12:00N 52°13' E 004°18'3 5.4
2018-Jun-23 11:28N 52°16' E 004°16'2 3.2
2018-Jun-23 11:00N 52°17' E 004°16'3 2.9
2018-Jun-23 09:50N 52°18' E 004°11'408 9.2
2018-Jun-21 13:20N 57°41' E 011°25'3 7.9
2018-Jun-21 12:59N 57°39' E 011°28'4 8.6
2018-Jun-21 12:29N 57°35' E 011°30'4 8.7
2018-Jun-21 11:59N 57°36' E 011°38'612.9
2018-Jun-21 11:30N 57°40' E 011°47'2 4.5
2018-Jun-21 10:59N 57°41' E 011°51'0 0.4
2018-Jun-21 10:29N 57°41' E 011°51'0 0.5
2018-Jun-21 10:00N 57°41' E 011°51'1 2.6
2018-Jun-21 09:30N 57°41' E 011°53'2 4.0
2018-Jun-21 09:00N 57°42' E 011°57'1 1.7
2018-Jun-21 08:28N 57°43' E 011°58'0 0.0
2018-Jun-21 07:58N 57°43' E 011°58'0 0.0
2018-Jun-21 07:25N 57°43' E 011°58'0 0.0
2018-Jun-21 06:55N 57°43' E 011°58'0 0.0
2018-Jun-21 06:28N 57°43' E 011°58'0 0.0
2018-Jun-21 05:55N 57°43' E 011°58'0 0.0
2018-Jun-21 05:28N 57°43' E 011°58'0 0.0
2018-Jun-21 04:58N 57°43' E 011°58'0 0.0
2018-Jun-21 04:28N 57°43' E 011°58'0 0.0
2018-Jun-21 03:55N 57°43' E 011°58'0 0.0
2018-Jun-21 03:25N 57°43' E 011°58'0 0.0
2018-Jun-21 02:58N 57°43' E 011°58'0 0.0
2018-Jun-21 02:28N 57°43' E 011°58'0 0.0
2018-Jun-21 01:58N 57°43' E 011°58'0 0.0
2018-Jun-21 01:16N 57°43' E 011°58'0 0.0
2018-Jun-21 00:55N 57°43' E 011°58'0 0.0
2018-Jun-21 00:22N 57°43' E 011°58'0 0.0
2018-Jun-20 23:58N 57°43' E 011°58'0 0.0
2018-Jun-20 23:28N 57°43' E 011°58'0 0.0
2018-Jun-20 22:55N 57°43' E 011°58'0 0.0
2018-Jun-20 22:28N 57°43' E 011°58'0 0.0
2018-Jun-20 21:58N 57°43' E 011°58'0 0.0
2018-Jun-20 21:28N 57°43' E 011°58'0 0.0
2018-Jun-20 20:58N 57°43' E 011°58'0 0.0
2018-Jun-20 20:28N 57°43' E 011°58'0 0.0
2018-Jun-20 19:55N 57°43' E 011°58'0 0.0
2018-Jun-20 19:25N 57°43' E 011°58'0 0.0
2018-Jun-20 18:55N 57°43' E 011°58'0 0.0
2018-Jun-20 18:28N 57°43' E 011°58'0 0.0
2018-Jun-20 17:46N 57°43' E 011°58'0 0.0
2018-Jun-20 17:25N 57°43' E 011°58'0 0.0
2018-Jun-20 16:58N 57°43' E 011°58'0 0.0
2018-Jun-20 16:28N 57°43' E 011°58'0 0.0
2018-Jun-20 15:58N 57°43' E 011°58'0 0.0
2018-Jun-20 15:28N 57°43' E 011°58'0 0.0
2018-Jun-20 14:58N 57°43' E 011°58'0 0.0
2018-Jun-20 14:28N 57°43' E 011°58'0 0.0
2018-Jun-20 13:58N 57°43' E 011°58'0 0.0
2018-Jun-20 13:28N 57°43' E 011°58'0 0.0
2018-Jun-20 12:58N 57°43' E 011°58'0 0.0
2018-Jun-20 12:28N 57°43' E 011°58'0 0.0
2018-Jun-20 11:58N 57°43' E 011°58'0 0.0
2018-Jun-20 11:28N 57°43' E 011°58'0 0.0
2018-Jun-20 10:58N 57°43' E 011°58'1 1.3
2018-Jun-20 10:30N 57°42' E 011°57'2 4.7
2018-Jun-20 10:00N 57°41' E 011°53'4 7.7
2018-Jun-20 09:30N 57°40' E 011°47'3 6.2
2018-Jun-20 08:59N 57°39' E 011°41'2 3.3
2018-Jun-20 08:28N 57°39' E 011°44'3 5.5
2018-Jun-20 08:00N 57°41' E 011°48'3 5.1
2018-Jun-20 07:30N 57°41' E 011°53'3 5.5
2018-Jun-20 06:57N 57°43' E 011°58'0 0.0
2018-Jun-20 06:23N 57°43' E 011°58'0 0.0
2018-Jun-20 05:56N 57°43' E 011°58'0 0.0
2018-Jun-20 05:26N 57°43' E 011°58'0 0.0
2018-Jun-20 04:56N 57°43' E 011°58'0 0.0
2018-Jun-20 04:21N 57°43' E 011°58'0 0.0
2018-Jun-20 03:50N 57°43' E 011°58'0 0.0
2018-Jun-20 03:26N 57°43' E 011°58'0 0.0
2018-Jun-20 02:57N 57°43' E 011°58'0 0.0
2018-Jun-20 02:02N 57°43' E 011°58'0 0.0
2018-Jun-20 01:47N 57°43' E 011°58'0 0.0
2018-Jun-20 01:29N 57°43' E 011°58'0 0.0
2018-Jun-20 00:54N 57°43' E 011°58'0 0.0
2018-Jun-20 00:20N 57°43' E 011°58'0 0.0
2018-Jun-19 23:59N 57°43' E 011°58'0 0.0
2018-Jun-19 23:20N 57°43' E 011°58'0 0.0
2018-Jun-19 22:57N 57°43' E 011°58'0 0.0
2018-Jun-19 22:26N 57°43' E 011°58'0 0.0
2018-Jun-19 21:59N 57°43' E 011°58'0 0.0
2018-Jun-19 21:26N 57°43' E 011°58'0 0.0
2018-Jun-19 20:50N 57°43' E 011°58'0 0.0
2018-Jun-19 19:53N 57°43' E 011°58'0 0.0
2018-Jun-19 19:27N 57°43' E 011°58'0 0.0
2018-Jun-19 18:56N 57°43' E 011°58'0 0.0
2018-Jun-19 18:29N 57°43' E 011°58'0 0.0
2018-Jun-19 17:56N 57°43' E 011°58'0 0.0
2018-Jun-19 17:23N 57°43' E 011°58'0 0.0
2018-Jun-19 16:59N 57°43' E 011°58'0 0.0
2018-Jun-19 16:27N 57°43' E 011°58'0 0.0
2018-Jun-19 15:59N 57°43' E 011°58'0 0.0
2018-Jun-19 15:29N 57°43' E 011°58'0 0.0
2018-Jun-19 14:57N 57°43' E 011°58'0 0.0
2018-Jun-19 14:20N 57°43' E 011°58'0 0.0
2018-Jun-19 14:00N 57°43' E 011°58'0 0.0
2018-Jun-19 13:30N 57°43' E 011°58'0 0.0
2018-Jun-19 12:59N 57°43' E 011°58'0 0.0
2018-Jun-19 12:23N 57°43' E 011°58'0 0.0
2018-Jun-19 11:56N 57°43' E 011°58'0 0.0
2018-Jun-19 11:23N 57°43' E 011°58'0 0.0
2018-Jun-19 10:59N 57°43' E 011°58'0 0.0
2018-Jun-19 10:23N 57°43' E 011°58'0 0.0
2018-Jun-19 09:59N 57°43' E 011°58'0 0.0
2018-Jun-19 09:20N 57°43' E 011°58'0 0.0
2018-Jun-19 08:45N 57°43' E 011°58'0 0.0
2018-Jun-19 08:29N 57°43' E 011°58'0 0.0
2018-Jun-19 07:59N 57°43' E 011°58'0 0.0
2018-Jun-19 07:29N 57°43' E 011°58'0 0.0
2018-Jun-19 06:59N 57°43' E 011°58'0 0.0
2018-Jun-18 23:22N 57°43' E 011°58'0 0.0
2018-Jun-18 18:10N 57°43' E 011°58'0 0.0
2018-Jun-18 17:49N 57°43' E 011°58'0 0.0
2018-Jun-18 17:28N 57°43' E 011°58'0 0.0
2018-Jun-18 16:58N 57°43' E 011°58'0 0.0
2018-Jun-18 16:28N 57°43' E 011°58'0 0.0
2018-Jun-18 15:58N 57°43' E 011°58'0 0.0
2018-Jun-18 15:19N 57°43' E 011°58'0 0.0
2018-Jun-18 14:58N 57°43' E 011°58'0 0.0
2018-Jun-18 14:16N 57°43' E 011°58'0 0.0
2018-Jun-18 13:58N 57°43' E 011°58'0 0.0
2018-Jun-18 13:28N 57°43' E 011°58'0 0.0
2018-Jun-18 12:58N 57°43' E 011°58'0 0.0
2018-Jun-18 12:28N 57°43' E 011°58'0 0.1
2018-Jun-18 12:00N 57°43' E 011°58'3 5.6
2018-Jun-18 11:30N 57°41' E 011°53'1 1.3
2018-Jun-18 11:00N 57°41' E 011°52'4 7.5
2018-Jun-18 10:30N 57°41' E 011°45'1 2.7
2018-Jun-18 10:01N 57°41' E 011°48'2 4.5
2018-Jun-18 09:30N 57°41' E 011°52'2 4.1
2018-Jun-18 08:58N 57°42' E 011°56'1 2.5
2018-Jun-18 08:25N 57°43' E 011°58'0 0.0
2018-Jun-17 20:44N 57°43' E 011°58'0 0.0
2018-Jun-17 20:29N 57°43' E 011°58'0 0.0
2018-Jun-17 19:59N 57°43' E 011°58'0 0.0
2018-Jun-17 19:26N 57°43' E 011°58'0 0.0
2018-Jun-17 18:56N 57°43' E 011°58'0 0.0
2018-Jun-17 18:26N 57°43' E 011°58'0 0.0
2018-Jun-17 17:53N 57°43' E 011°58'0 0.0
2018-Jun-17 17:29N 57°43' E 011°58'0 0.0
2018-Jun-17 16:59N 57°43' E 011°58'0 0.0
2018-Jun-17 16:29N 57°43' E 011°58'0 0.0
2018-Jun-17 15:50N 57°43' E 011°58'0 0.0
2018-Jun-17 15:26N 57°43' E 011°58'0 0.0
2018-Jun-17 14:56N 57°43' E 011°58'0 0.0
2018-Jun-17 14:29N 57°43' E 011°58'0 0.7
2018-Jun-17 13:59N 57°43' E 011°57'1 2.3
2018-Jun-17 13:30N 57°42' E 011°55'2 4.4
2018-Jun-17 13:00N 57°41' E 011°52'0 1.0
2018-Jun-17 12:30N 57°41' E 011°51'0 0.6
2018-Jun-17 12:00N 57°41' E 011°51'0 0.5
2018-Jun-17 11:30N 57°41' E 011°51'1 2.7
2018-Jun-17 10:58N 57°41' E 011°54'2 3.3
2018-Jun-17 10:30N 57°42' E 011°56'1 2.0
2018-Jun-17 09:57N 57°43' E 011°58'0 0.0
2018-Jun-17 09:27N 57°43' E 011°58'0 0.0
2018-Jun-17 09:00N 57°43' E 011°58'0 0.0
2018-Jun-17 08:30N 57°43' E 011°58'0 0.0
2018-Jun-17 07:54N 57°43' E 011°58'0 0.0
2018-Jun-17 07:27N 57°43' E 011°58'0 0.0
2018-Jun-17 07:00N 57°43' E 011°58'0 0.0
2018-Jun-17 06:30N 57°43' E 011°58'0 0.0
2018-Jun-17 06:00N 57°43' E 011°58'0 0.0
2018-Jun-17 05:30N 57°43' E 011°58'0 0.0
2018-Jun-17 05:00N 57°43' E 011°58'0 0.0
2018-Jun-17 04:27N 57°43' E 011°58'0 0.0
2018-Jun-17 03:57N 57°43' E 011°58'0 0.0
2018-Jun-17 03:24N 57°43' E 011°58'0 0.0
2018-Jun-17 03:00N 57°43' E 011°58'0 0.0
2018-Jun-17 02:30N 57°43' E 011°58'0 0.0
2018-Jun-17 02:00N 57°43' E 011°58'0 0.0
2018-Jun-17 01:27N 57°43' E 011°58'0 0.0
2018-Jun-17 01:00N 57°43' E 011°58'0 0.0
2018-Jun-17 00:27N 57°43' E 011°58'0 0.0
2018-Jun-17 00:00N 57°43' E 011°58'0 0.0
2018-Jun-16 23:30N 57°43' E 011°58'0 0.0
2018-Jun-16 21:36N 57°43' E 011°58'0 0.0
2018-Jun-16 21:24N 57°43' E 011°58'0 0.0
2018-Jun-16 21:00N 57°43' E 011°58'0 0.0
2018-Jun-16 20:30N 57°43' E 011°58'0 0.0
2018-Jun-16 20:00N 57°43' E 011°58'0 0.0
2018-Jun-16 19:24N 57°43' E 011°58'0 0.0
2018-Jun-16 19:00N 57°43' E 011°58'0 0.0
2018-Jun-16 18:30N 57°43' E 011°58'0 0.0
2018-Jun-16 17:57N 57°43' E 011°58'0 0.0
2018-Jun-16 17:30N 57°43' E 011°58'0 0.0
2018-Jun-16 17:00N 57°43' E 011°58'0 0.0
2018-Jun-16 16:24N 57°43' E 011°58'0 0.0
2018-Jun-16 16:00N 57°43' E 011°58'0 0.0
2018-Jun-16 15:27N 57°43' E 011°58'0 0.0
2018-Jun-16 15:00N 57°43' E 011°58'0 0.0
2018-Jun-16 14:27N 57°43' E 011°58'0 0.0
2018-Jun-16 14:00N 57°43' E 011°58'0 0.0
2018-Jun-16 13:27N 57°43' E 011°58'0 0.0
2018-Jun-16 13:00N 57°43' E 011°58'0 0.0
2018-Jun-16 12:30N 57°43' E 011°58'0 0.8
2018-Jun-16 12:00N 57°43' E 011°57'0 0.0
2018-Jun-16 11:28N 57°43' E 011°57'0 0.0
2018-Jun-16 10:58N 57°43' E 011°57'0 0.0
2018-Jun-15 20:39N 57°43' E 011°58'0 0.0
2018-Jun-15 20:21N 57°43' E 011°58'0 0.0
2018-Jun-15 19:48N 57°43' E 011°58'0 0.0
2018-Jun-15 19:27N 57°43' E 011°58'0 0.0
2018-Jun-15 19:00N 57°43' E 011°58'0 0.1
2018-Jun-15 18:26N 57°43' E 011°58'2 4.7
2018-Jun-15 18:00N 57°42' E 011°55'3 5.9
2018-Jun-15 17:30N 57°41' E 011°49'2 3.3
2018-Jun-15 17:00N 57°40' E 011°47'4 8.1
2018-Jun-15 16:29N 57°38' E 011°40'  
Track history (hours):
 
Tides and Currents Weather Stations Pressure Air Temp Water Temp Dewpoint Dewpoint Depression Visibility Wind Speed Wind Dir Waves Ship Positions

Green Dragon

Last reported at 2018-Jun-24 11:00 UTC. Time now 2018-Jun-24 10:59 UTC.
Position N 52°06' E 004°16'.

Length 21 m.

Type: Sailing vessel. MMSI: 203214400.

Date/timePositionNaut miles runAvg speedWind from/ knotsBaromVisibWave heightAir tempDewpointWater temp
2018-Jun-24 11:00N 52°06' E 004°16'0 0.0
2018-Jun-24 10:21N 52°06' E 004°16'0 0.0
2018-Jun-24 10:00N 52°06' E 004°16'0 0.0
2018-Jun-24 08:33N 52°06' E 004°16'0 0.0
2018-Jun-24 08:27N 52°06' E 004°16'0 0.0
2018-Jun-24 08:00N 52°06' E 004°16'0 0.0
2018-Jun-24 07:30N 52°06' E 004°16'0 0.0
2018-Jun-24 07:00N 52°06' E 004°16'0 0.0
2018-Jun-24 06:30N 52°06' E 004°16'0 0.0
2018-Jun-24 05:45N 52°06' E 004°16'0 0.0
2018-Jun-24 05:21N 52°06' E 004°16'0 0.0
2018-Jun-24 04:57N 52°06' E 004°16'0 0.0
2018-Jun-24 04:18N 52°06' E 004°16'0 0.0
2018-Jun-24 04:00N 52°06' E 004°16'0 0.0
2018-Jun-24 03:30N 52°06' E 004°16'0 0.0
2018-Jun-24 02:54N 52°06' E 004°16'0 0.0
2018-Jun-24 02:21N 52°06' E 004°16'0 0.0
2018-Jun-24 01:33N 52°06' E 004°16'0 0.0
2018-Jun-24 01:30N 52°06' E 004°16'0 0.0
2018-Jun-24 01:00N 52°06' E 004°16'0 0.0
2018-Jun-24 00:27N 52°06' E 004°16'0 0.0
2018-Jun-23 23:54N 52°06' E 004°16'0 0.0
2018-Jun-23 23:27N 52°06' E 004°16'0 0.0
2018-Jun-23 23:00N 52°06' E 004°16'0 0.0
2018-Jun-23 22:30N 52°06' E 004°16'0 0.0
2018-Jun-23 21:57N 52°06' E 004°16'0 0.0
2018-Jun-23 21:30N 52°06' E 004°16'0 0.0
2018-Jun-23 20:36N 52°06' E 004°16'0 0.0
2018-Jun-23 20:27N 52°06' E 004°16'0 0.0
2018-Jun-23 19:39N 52°06' E 004°16'0 0.0
2018-Jun-23 19:21N 52°06' E 004°16'0 0.0
2018-Jun-23 18:45N 52°06' E 004°16'0 0.0
2018-Jun-23 18:27N 52°06' E 004°16'0 0.0
2018-Jun-23 17:57N 52°06' E 004°16'0 0.0
2018-Jun-23 17:24N 52°06' E 004°16'0 0.0
2018-Jun-23 16:57N 52°06' E 004°16'0 0.0
2018-Jun-23 16:27N 52°06' E 004°16'0 0.0
2018-Jun-23 16:00N 52°06' E 004°16'0 0.0
2018-Jun-23 15:27N 52°06' E 004°16'0 0.0
2018-Jun-23 14:57N 52°06' E 004°16'0 0.0
2018-Jun-23 14:18N 52°06' E 004°16'0 0.0
2018-Jun-23 13:59N 52°06' E 004°16'2 3.5
2018-Jun-23 13:30N 52°07' E 004°14'1 2.4
2018-Jun-23 12:59N 52°08' E 004°15'3 6.2
2018-Jun-23 12:30N 52°10' E 004°17'3 5.9
2018-Jun-23 12:00N 52°13' E 004°18'3 5.4
2018-Jun-23 11:28N 52°16' E 004°16'2 3.2
2018-Jun-23 11:00N 52°17' E 004°16'3 2.9
2018-Jun-23 09:50N 52°18' E 004°11'408 9.2
2018-Jun-21 13:20N 57°41' E 011°25'3 7.9
2018-Jun-21 12:59N 57°39' E 011°28'4 8.6
2018-Jun-21 12:29N 57°35' E 011°30'4 8.7
2018-Jun-21 11:59N 57°36' E 011°38'612.9
2018-Jun-21 11:30N 57°40' E 011°47'2 4.5
2018-Jun-21 10:59N 57°41' E 011°51'0 0.4
2018-Jun-21 10:29N 57°41' E 011°51'0 0.5
2018-Jun-21 10:00N 57°41' E 011°51'1 2.6
2018-Jun-21 09:30N 57°41' E 011°53'2 4.0
2018-Jun-21 09:00N 57°42' E 011°57'1 1.7
2018-Jun-21 08:28N 57°43' E 011°58'0 0.0
2018-Jun-21 07:58N 57°43' E 011°58'0 0.0
2018-Jun-21 07:25N 57°43' E 011°58'0 0.0
2018-Jun-21 06:55N 57°43' E 011°58'0 0.0
2018-Jun-21 06:28N 57°43' E 011°58'0 0.0
2018-Jun-21 05:55N 57°43' E 011°58'0 0.0
2018-Jun-21 05:28N 57°43' E 011°58'0 0.0
2018-Jun-21 04:58N 57°43' E 011°58'0 0.0
2018-Jun-21 04:28N 57°43' E 011°58'0 0.0
2018-Jun-21 03:55N 57°43' E 011°58'0 0.0
2018-Jun-21 03:25N 57°43' E 011°58'0 0.0
2018-Jun-21 02:58N 57°43' E 011°58'0 0.0
2018-Jun-21 02:28N 57°43' E 011°58'0 0.0
2018-Jun-21 01:58N 57°43' E 011°58'0 0.0
2018-Jun-21 01:16N 57°43' E 011°58'0 0.0
2018-Jun-21 00:55N 57°43' E 011°58'0 0.0
2018-Jun-21 00:22N 57°43' E 011°58'0 0.0
2018-Jun-20 23:58N 57°43' E 011°58'0 0.0
2018-Jun-20 23:28N 57°43' E 011°58'0 0.0
2018-Jun-20 22:55N 57°43' E 011°58'0 0.0
2018-Jun-20 22:28N 57°43' E 011°58'0 0.0
2018-Jun-20 21:58N 57°43' E 011°58'0 0.0
2018-Jun-20 21:28N 57°43' E 011°58'0 0.0
2018-Jun-20 20:58N 57°43' E 011°58'0 0.0
2018-Jun-20 20:28N 57°43' E 011°58'0 0.0
2018-Jun-20 19:55N 57°43' E 011°58'0 0.0
2018-Jun-20 19:25N 57°43' E 011°58'0 0.0
2018-Jun-20 18:55N 57°43' E 011°58'0 0.0
2018-Jun-20 18:28N 57°43' E 011°58'0 0.0
2018-Jun-20 17:46N 57°43' E 011°58'0 0.0
2018-Jun-20 17:25N 57°43' E 011°58'0 0.0
2018-Jun-20 16:58N 57°43' E 011°58'0 0.0
2018-Jun-20 16:28N 57°43' E 011°58'0 0.0
2018-Jun-20 15:58N 57°43' E 011°58'0 0.0
2018-Jun-20 15:28N 57°43' E 011°58'0 0.0
2018-Jun-20 14:58N 57°43' E 011°58'0 0.0
2018-Jun-20 14:28N 57°43' E 011°58'0 0.0
2018-Jun-20 13:58N 57°43' E 011°58'0 0.0
2018-Jun-20 13:28N 57°43' E 011°58'0 0.0
2018-Jun-20 12:58N 57°43' E 011°58'0 0.0
2018-Jun-20 12:28N 57°43' E 011°58'0 0.0
2018-Jun-20 11:58N 57°43' E 011°58'0 0.0
2018-Jun-20 11:28N 57°43' E 011°58'0 0.0
2018-Jun-20 10:58N 57°43' E 011°58'1 1.3
2018-Jun-20 10:30N 57°42' E 011°57'2 4.7
2018-Jun-20 10:00N 57°41' E 011°53'4 7.7
2018-Jun-20 09:30N 57°40' E 011°47'3 6.2
2018-Jun-20 08:59N 57°39' E 011°41'2 3.3
2018-Jun-20 08:28N 57°39' E 011°44'3 5.5
2018-Jun-20 08:00N 57°41' E 011°48'3 5.1
2018-Jun-20 07:30N 57°41' E 011°53'3 5.5
2018-Jun-20 06:57N 57°43' E 011°58'0 0.0
2018-Jun-20 06:23N 57°43' E 011°58'0 0.0
2018-Jun-20 05:56N 57°43' E 011°58'0 0.0
2018-Jun-20 05:26N 57°43' E 011°58'0 0.0
2018-Jun-20 04:56N 57°43' E 011°58'0 0.0
2018-Jun-20 04:21N 57°43' E 011°58'0 0.0
2018-Jun-20 03:50N 57°43' E 011°58'0 0.0
2018-Jun-20 03:26N 57°43' E 011°58'0 0.0
2018-Jun-20 02:57N 57°43' E 011°58'0 0.0
2018-Jun-20 02:02N 57°43' E 011°58'0 0.0
2018-Jun-20 01:47N 57°43' E 011°58'0 0.0
2018-Jun-20 01:29N 57°43' E 011°58'0 0.0
2018-Jun-20 00:54N 57°43' E 011°58'0 0.0
2018-Jun-20 00:20N 57°43' E 011°58'0 0.0
2018-Jun-19 23:59N 57°43' E 011°58'0 0.0
2018-Jun-19 23:20N 57°43' E 011°58'0 0.0
2018-Jun-19 22:57N 57°43' E 011°58'0 0.0
2018-Jun-19 22:26N 57°43' E 011°58'0 0.0
2018-Jun-19 21:59N 57°43' E 011°58'0 0.0
2018-Jun-19 21:26N 57°43' E 011°58'0 0.0
2018-Jun-19 20:50N 57°43' E 011°58'0 0.0
2018-Jun-19 19:53N 57°43' E 011°58'0 0.0
2018-Jun-19 19:27N 57°43' E 011°58'0 0.0
2018-Jun-19 18:56N 57°43' E 011°58'0 0.0
2018-Jun-19 18:29N 57°43' E 011°58'0 0.0
2018-Jun-19 17:56N 57°43' E 011°58'0 0.0
2018-Jun-19 17:23N 57°43' E 011°58'0 0.0
2018-Jun-19 16:59N 57°43' E 011°58'0 0.0
2018-Jun-19 16:27N 57°43' E 011°58'0 0.0
2018-Jun-19 15:59N 57°43' E 011°58'0 0.0
2018-Jun-19 15:29N 57°43' E 011°58'0 0.0
2018-Jun-19 14:57N 57°43' E 011°58'0 0.0
2018-Jun-19 14:20N 57°43' E 011°58'0 0.0
2018-Jun-19 14:00N 57°43' E 011°58'0 0.0
2018-Jun-19 13:30N 57°43' E 011°58'0 0.0
2018-Jun-19 12:59N 57°43' E 011°58'0 0.0
2018-Jun-19 12:23N 57°43' E 011°58'0 0.0
2018-Jun-19 11:56N 57°43' E 011°58'0 0.0
2018-Jun-19 11:23N 57°43' E 011°58'0 0.0
2018-Jun-19 10:59N 57°43' E 011°58'0 0.0
2018-Jun-19 10:23N 57°43' E 011°58'0 0.0
2018-Jun-19 09:59N 57°43' E 011°58'0 0.0
2018-Jun-19 09:20N 57°43' E 011°58'0 0.0
2018-Jun-19 08:45N 57°43' E 011°58'0 0.0
2018-Jun-19 08:29N 57°43' E 011°58'0 0.0
2018-Jun-19 07:59N 57°43' E 011°58'0 0.0
2018-Jun-19 07:29N 57°43' E 011°58'0 0.0
2018-Jun-19 06:59N 57°43' E 011°58'0 0.0
2018-Jun-18 23:22N 57°43' E 011°58'0 0.0
2018-Jun-18 18:10N 57°43' E 011°58'0 0.0
2018-Jun-18 17:49N 57°43' E 011°58'0 0.0
2018-Jun-18 17:28N 57°43' E 011°58'0 0.0
2018-Jun-18 16:58N 57°43' E 011°58'0 0.0
2018-Jun-18 16:28N 57°43' E 011°58'0 0.0
2018-Jun-18 15:58N 57°43' E 011°58'0 0.0
2018-Jun-18 15:19N 57°43' E 011°58'0 0.0
2018-Jun-18 14:58N 57°43' E 011°58'0 0.0
2018-Jun-18 14:16N 57°43' E 011°58'0 0.0
2018-Jun-18 13:58N 57°43' E 011°58'0 0.0
2018-Jun-18 13:28N 57°43' E 011°58'0 0.0
2018-Jun-18 12:58N 57°43' E 011°58'0 0.0
2018-Jun-18 12:28N 57°43' E 011°58'0 0.1
2018-Jun-18 12:00N 57°43' E 011°58'3 5.6
2018-Jun-18 11:30N 57°41' E 011°53'1 1.3
2018-Jun-18 11:00N 57°41' E 011°52'4 7.5
2018-Jun-18 10:30N 57°41' E 011°45'1 2.7
2018-Jun-18 10:01N 57°41' E 011°48'2 4.5
2018-Jun-18 09:30N 57°41' E 011°52'2 4.1
2018-Jun-18 08:58N 57°42' E 011°56'1 2.5
2018-Jun-18 08:25N 57°43' E 011°58'0 0.0
2018-Jun-17 20:44N 57°43' E 011°58'0 0.0
2018-Jun-17 20:29N 57°43' E 011°58'0 0.0
2018-Jun-17 19:59N 57°43' E 011°58'0 0.0
2018-Jun-17 19:26N 57°43' E 011°58'0 0.0
2018-Jun-17 18:56N 57°43' E 011°58'0 0.0
2018-Jun-17 18:26N 57°43' E 011°58'0 0.0
2018-Jun-17 17:53N 57°43' E 011°58'0 0.0
2018-Jun-17 17:29N 57°43' E 011°58'0 0.0
2018-Jun-17 16:59N 57°43' E 011°58'0 0.0
2018-Jun-17 16:29N 57°43' E 011°58'0 0.0
2018-Jun-17 15:50N 57°43' E 011°58'0 0.0
2018-Jun-17 15:26N 57°43' E 011°58'0 0.0
2018-Jun-17 14:56N 57°43' E 011°58'0 0.0
2018-Jun-17 14:29N 57°43' E 011°58'0 0.7
2018-Jun-17 13:59N 57°43' E 011°57'1 2.3
2018-Jun-17 13:30N 57°42' E 011°55'2 4.4
2018-Jun-17 13:00N 57°41' E 011°52'0 1.0
2018-Jun-17 12:30N 57°41' E 011°51'0 0.6
2018-Jun-17 12:00N 57°41' E 011°51'0 0.5
2018-Jun-17 11:30N 57°41' E 011°51'1 2.7
2018-Jun-17 10:58N 57°41' E 011°54'2 3.3
2018-Jun-17 10:30N 57°42' E 011°56'1 2.0
2018-Jun-17 09:57N 57°43' E 011°58'0 0.0
2018-Jun-17 09:27N 57°43' E 011°58'0 0.0
2018-Jun-17 09:00N 57°43' E 011°58'0 0.0
2018-Jun-17 08:30N 57°43' E 011°58'0 0.0
2018-Jun-17 07:54N 57°43' E 011°58'0 0.0
2018-Jun-17 07:27N 57°43' E 011°58'0 0.0
2018-Jun-17 07:00N 57°43' E 011°58'0 0.0
2018-Jun-17 06:30N 57°43' E 011°58'0 0.0
2018-Jun-17 06:00N 57°43' E 011°58'0 0.0
2018-Jun-17 05:30N 57°43' E 011°58'0 0.0
2018-Jun-17 05:00N 57°43' E 011°58'0 0.0
2018-Jun-17 04:27N 57°43' E 011°58'0 0.0
2018-Jun-17 03:57N 57°43' E 011°58'0 0.0
2018-Jun-17 03:24N 57°43' E 011°58'0 0.0
2018-Jun-17 03:00N 57°43' E 011°58'0 0.0
2018-Jun-17 02:30N 57°43' E 011°58'0 0.0
2018-Jun-17 02:00N 57°43' E 011°58'0 0.0
2018-Jun-17 01:27N 57°43' E 011°58'0 0.0
2018-Jun-17 01:00N 57°43' E 011°58'0 0.0
2018-Jun-17 00:27N 57°43' E 011°58'0 0.0
2018-Jun-17 00:00N 57°43' E 011°58'0 0.0
2018-Jun-16 23:30N 57°43' E 011°58'0 0.0
2018-Jun-16 21:36N 57°43' E 011°58'0 0.0
2018-Jun-16 21:24N 57°43' E 011°58'0 0.0
2018-Jun-16 21:00N 57°43' E 011°58'0 0.0
2018-Jun-16 20:30N 57°43' E 011°58'0 0.0
2018-Jun-16 20:00N 57°43' E 011°58'0 0.0
2018-Jun-16 19:24N 57°43' E 011°58'0 0.0
2018-Jun-16 19:00N 57°43' E 011°58'0 0.0
2018-Jun-16 18:30N 57°43' E 011°58'0 0.0
2018-Jun-16 17:57N 57°43' E 011°58'0 0.0
2018-Jun-16 17:30N 57°43' E 011°58'0 0.0
2018-Jun-16 17:00N 57°43' E 011°58'0 0.0
2018-Jun-16 16:24N 57°43' E 011°58'0 0.0
2018-Jun-16 16:00N 57°43' E 011°58'0 0.0
2018-Jun-16 15:27N 57°43' E 011°58'0 0.0
2018-Jun-16 15:00N 57°43' E 011°58'0 0.0
2018-Jun-16 14:27N 57°43' E 011°58'0 0.0
2018-Jun-16 14:00N 57°43' E 011°58'0 0.0
2018-Jun-16 13:27N 57°43' E 011°58'0 0.0
2018-Jun-16 13:00N 57°43' E 011°58'0 0.0
2018-Jun-16 12:30N 57°43' E 011°58'0 0.8
2018-Jun-16 12:00N 57°43' E 011°57'0 0.0
2018-Jun-16 11:28N 57°43' E 011°57'0 0.0
2018-Jun-16 10:58N 57°43' E 011°57'0 0.0
2018-Jun-15 20:39N 57°43' E 011°58'0 0.0
2018-Jun-15 20:21N 57°43' E 011°58'0 0.0
2018-Jun-15 19:48N 57°43' E 011°58'0 0.0
2018-Jun-15 19:27N 57°43' E 011°58'0 0.0
2018-Jun-15 19:00N 57°43' E 011°58'0 0.1
2018-Jun-15 18:26N 57°43' E 011°58'2 4.7
2018-Jun-15 18:00N 57°42' E 011°55'3 5.9
2018-Jun-15 17:30N 57°41' E 011°49'2 3.3
2018-Jun-15 17:00N 57°40' E 011°47'4 8.1
2018-Jun-15 16:29N 57°38' E 011°40'  

Dump ship's entire track history